Time;durP1;ratioP1;P1;durP2;ratioP2;P2;SDS_P1;SDS_P2;PMS_P1;PMS_P2;Temp;Humidity;BMP_temperature;BMP_pressure;BME280_temperature;BME280_humidity;BME280_pressure;Samples;Min_cycle;Max_cycle;Signal;HPM_P1;HPM_P2
2023/04/23 00:02:22;;;;;;;15.57;8.65;;;;;;;;;;8313498;28;20061;-86
2023/04/23 00:06:26;;;;;;;19.60;7.32;;;;;;;;;;8306928;28;20058;-85
2023/04/23 00:10:33;;;;;;;13.48;7.53;;;;;;;;;;8305367;28;20081;-85
2023/04/23 00:14:40;;;;;;;17.85;7.90;;;;;;;;;;8302071;28;20058;-87
2023/04/23 00:18:45;;;;;;;16.65;7.50;;;;;;;;;;8300284;28;20477;-85
2023/04/23 00:22:51;;;;;;;17.42;7.40;;;;;;;;;;8298371;28;20058;-85
2023/04/23 00:26:58;;;;;;;13.02;7.38;;;;;;;;;;8328689;28;20063;-85
2023/04/23 00:31:01;;;;;;;13.10;6.65;;;;;;;;;;8311798;28;20057;-85
2023/04/23 00:35:06;;;;;;;14.20;7.65;;;;;;;;;;8330675;28;20175;-86
2023/04/23 00:39:10;;;;;;;13.85;7.28;;;;;;;;;;8317686;28;20057;-85
2023/04/23 00:43:19;;;;;;;13.65;7.55;;;;;;;;;;8353987;28;20420;-86
2023/04/23 00:47:25;;;;;;;18.45;8.38;;;;;;;;;;8325354;28;20063;-85
2023/04/23 00:51:31;;;;;;;11.55;7.25;;;;;;;;;;8350370;28;20136;-85
2023/04/23 00:55:35;;;;;;;14.57;7.95;;;;;;;;;;8362186;28;20061;-85
2023/04/23 00:59:44;;;;;;;15.15;7.13;;;;;;;;;;8347737;28;20049;-86
2023/04/23 01:03:55;;;;;;;11.10;6.75;;;;;;;;;;8366786;28;20057;-85
2023/04/23 01:07:58;;;;;;;12.43;6.63;;;;;;;;;;8350013;28;20148;-86
2023/04/23 01:12:05;;;;;;;13.32;6.78;;;;;;;;;;8366669;28;20382;-86
2023/04/23 01:16:14;;;;;;;11.23;6.93;;;;;;;;;;8365885;28;20415;-85
2023/04/23 01:20:20;;;;;;;17.00;8.20;;;;;;;;;;8349624;28;20065;-86
2023/04/23 01:24:28;;;;;;;15.23;6.75;;;;;;;;;;8348735;28;20061;-86
2023/04/23 01:28:32;;;;;;;14.02;8.35;;;;;;;;;;8365773;28;20053;-86
2023/04/23 01:37:38;;;;;;;17.67;8.55;;;;;;;;;;8352285;28;20172;-86
2023/04/23 01:41:46;;;;;;;16.75;8.38;;;;;;;;;;8365783;28;20455;-86
2023/04/23 01:45:52;;;;;;;17.33;8.98;;;;;;;;;;8347574;28;20084;-85
2023/04/23 01:49:58;;;;;;;17.10;8.27;;;;;;;;;;8337537;28;20102;-86
2023/04/23 01:54:04;;;;;;;17.77;7.82;;;;;;;;;;8348372;28;20057;-86
2023/04/23 01:58:11;;;;;;;16.60;8.80;;;;;;;;;;8336011;28;20057;-85
2023/04/23 02:02:16;;;;;;;18.58;8.70;;;;;;;;;;8363698;28;20057;-85
2023/04/23 02:06:22;;;;;;;16.38;8.57;;;;;;;;;;8347987;28;20139;-86
2023/04/23 02:10:25;;;;;;;17.52;9.13;;;;;;;;;;8347358;28;20052;-85
2023/04/23 02:14:32;;;;;;;20.90;9.30;;;;;;;;;;8347141;28;20140;-84
2023/04/23 02:18:38;;;;;;;14.75;9.07;;;;;;;;;;8347624;28;20056;-86
2023/04/23 02:22:45;;;;;;;17.08;9.48;;;;;;;;;;8346999;28;20059;-86
2023/04/23 02:26:50;;;;;;;14.45;7.88;;;;;;;;;;8346647;28;20057;-85
2023/04/23 02:30:58;;;;;;;17.05;8.88;;;;;;;;;;8347193;28;20114;-85
2023/04/23 02:35:05;;;;;;;20.98;9.35;;;;;;;;;;8347527;28;20532;-87
2023/04/23 02:39:09;;;;;;;13.00;7.78;;;;;;;;;;8346579;28;20068;-85
2023/04/23 02:43:13;;;;;;;13.50;7.10;;;;;;;;;;8370875;23;20053;-87
2023/04/23 02:47:18;;;;;;;14.43;7.80;;;;;;;;;;8329607;28;20053;-86
2023/04/23 02:55:39;;;;;;;16.90;7.95;;;;;;;;;;8494782;22;20186;-94
2023/04/23 02:59:42;;;;;;;18.27;8.48;;;;;;;;;;8368831;28;20052;-91
2023/04/23 03:03:46;;;;;;;12.88;6.50;;;;;;;;;;8370500;28;20057;-93
2023/04/23 03:07:50;;;;;;;18.65;10.00;;;;;;;;;;8352367;28;20056;-94
2023/04/23 03:11:56;;;;;;;14.25;8.55;;;;;;;;;;8351307;28;20144;-94
2023/04/23 03:15:59;;;;;;;13.02;7.15;;;;;;;;;;8364448;28;20411;-94
2023/04/23 03:20:07;;;;;;;17.90;7.88;;;;;;;;;;8350537;28;20602;-94
2023/04/23 03:24:13;;;;;;;13.38;6.90;;;;;;;;;;8348954;28;20480;-93
2023/04/23 03:28:17;;;;;;;14.30;7.45;;;;;;;;;;8360998;28;20049;-92
2023/04/23 03:32:20;;;;;;;16.25;7.10;;;;;;;;;;8365943;28;20060;-93
2023/04/23 03:36:24;;;;;;;12.68;7.00;;;;;;;;;;8367622;28;20053;-93
2023/04/23 03:40:28;;;;;;;14.23;7.22;;;;;;;;;;8336071;28;20056;-94
2023/04/23 03:44:33;;;;;;;14.00;7.40;;;;;;;;;;8349114;28;20080;-93
2023/04/23 03:48:36;;;;;;;16.52;8.48;;;;;;;;;;8368570;28;20052;-94
2023/04/23 03:52:41;;;;;;;18.60;9.27;;;;;;;;;;8368767;28;20415;-93
2023/04/23 03:56:48;;;;;;;17.88;10.32;;;;;;;;;;8338195;28;20106;-93
2023/04/23 04:00:53;;;;;;;49.80;25.80;;;;;;;;;;8351127;28;20412;-93
2023/04/23 04:05:09;;;;;;;31.33;16.23;;;;;;;;;;8350963;28;20049;-92
2023/04/23 04:09:17;;;;;;;20.45;9.57;;;;;;;;;;8371162;28;20057;-93
2023/04/23 04:13:21;;;;;;;12.65;7.22;;;;;;;;;;8376627;28;20107;-93
2023/04/23 04:17:26;;;;;;;14.98;7.05;;;;;;;;;;8362362;28;20069;-94
2023/04/23 04:21:32;;;;;;;9.02;5.60;;;;;;;;;;8376935;28;20158;-92
2023/04/23 04:25:50;;;;;;;15.63;6.78;;;;;;;;;;8377793;28;20403;-93
2023/04/23 04:29:56;;;;;;;13.80;7.75;;;;;;;;;;8376687;28;20057;-93
2023/04/23 04:34:02;;;;;;;12.73;6.22;;;;;;;;;;8366593;28;20081;-93
2023/04/23 04:38:13;;;;;;;8.73;5.88;;;;;;;;;;8379052;28;20060;-93
2023/04/23 04:42:35;;;;;;;12.43;6.45;;;;;;;;;;8370490;28;20132;-94
2023/04/23 04:46:46;;;;;;;12.95;6.35;;;;;;;;;;8382868;28;20065;-93
2023/04/23 04:50:53;;;;;;;9.98;5.68;;;;;;;;;;8348621;28;20145;-94
2023/04/23 04:59:25;;;;;;;11.75;6.82;;;;;;;;;;8352309;28;20134;-94
2023/04/23 05:03:35;;;;;;;9.65;5.88;;;;;;;;;;8379973;28;20060;-94
2023/04/23 05:07:47;;;;;;;12.88;6.55;;;;;;;;;;8347518;28;20049;-94
2023/04/23 05:11:52;;;;;;;11.02;5.80;;;;;;;;;;8378429;28;20053;-93
2023/04/23 05:15:57;;;;;;;7.95;5.05;;;;;;;;;;8348960;28;20080;-93
2023/04/23 05:20:01;;;;;;;6.85;4.55;;;;;;;;;;8356589;28;20064;-93
2023/04/23 05:24:11;;;;;;;7.30;4.80;;;;;;;;;;8352484;28;20053;-94
2023/04/23 05:28:14;;;;;;;8.63;5.50;;;;;;;;;;8370356;28;20080;-95
2023/04/23 05:32:24;;;;;;;10.68;6.72;;;;;;;;;;8368881;28;20049;-94
2023/04/23 05:36:32;;;;;;;10.50;6.93;;;;;;;;;;8383999;28;20049;-94
2023/04/23 05:40:46;;;;;;;7.47;4.90;;;;;;;;;;8369635;28;20068;-94
2023/04/23 05:44:50;;;;;;;8.02;4.50;;;;;;;;;;8380837;28;20107;-95
2023/04/23 05:48:57;;;;;;;6.22;4.13;;;;;;;;;;8365513;28;20072;-95
2023/04/23 05:53:01;;;;;;;7.05;4.95;;;;;;;;;;8335658;28;20063;-94
2023/04/23 05:57:05;;;;;;;5.75;4.03;;;;;;;;;;8358338;28;20057;-95
2023/04/23 06:01:09;;;;;;;6.88;3.97;;;;;;;;;;8350167;28;20068;-95
2023/04/23 06:05:14;;;;;;;7.10;4.35;;;;;;;;;;8326741;28;20084;-95
2023/04/23 06:09:19;;;;;;;6.70;4.40;;;;;;;;;;8348760;28;20050;-95
2023/04/23 06:13:22;;;;;;;6.45;4.05;;;;;;;;;;8349952;28;20113;-94
2023/04/23 06:17:26;;;;;;;9.70;3.90;;;;;;;;;;8354964;28;20156;-95
2023/04/23 06:21:32;;;;;;;7.90;4.32;;;;;;;;;;8375379;28;20053;-95
2023/04/23 06:25:35;;;;;;;6.53;4.25;;;;;;;;;;8369775;28;20044;-95
2023/04/23 06:29:39;;;;;;;7.60;3.85;;;;;;;;;;8352204;28;20083;-96
2023/04/23 06:33:42;;;;;;;5.30;3.67;;;;;;;;;;8351868;28;20057;-95
2023/04/23 06:37:50;;;;;;;7.75;3.70;;;;;;;;;;8352330;28;20057;-96
2023/04/23 06:41:53;;;;;;;4.97;3.20;;;;;;;;;;8354494;28;20132;-95
2023/04/23 06:45:56;;;;;;;7.60;3.40;;;;;;;;;;8365038;28;20053;-95
2023/04/23 06:50:01;;;;;;;4.88;3.13;;;;;;;;;;8364701;28;20413;-96
2023/04/23 06:54:06;;;;;;;6.47;3.30;;;;;;;;;;8364870;28;20061;-94
2023/04/23 06:58:10;;;;;;;6.32;3.40;;;;;;;;;;8371018;28;20135;-94
2023/04/23 07:02:13;;;;;;;4.97;2.70;;;;;;;;;;8369530;28;20055;-94
2023/04/23 07:06:19;;;;;;;4.65;3.15;;;;;;;;;;8352974;28;20102;-95
2023/04/23 07:10:25;;;;;;;6.13;2.92;;;;;;;;;;8353651;28;20127;-94
2023/04/23 07:14:28;;;;;;;6.38;2.97;;;;;;;;;;8359792;28;20068;-93
2023/04/23 07:18:31;;;;;;;5.40;3.25;;;;;;;;;;8351697;28;20053;-94
2023/04/23 07:22:34;;;;;;;4.93;3.20;;;;;;;;;;8351457;28;20057;-95
2023/04/23 07:26:39;;;;;;;4.82;3.15;;;;;;;;;;8335605;28;20055;-94
2023/04/23 07:30:42;;;;;;;5.55;2.90;;;;;;;;;;8348469;28;20124;-94
2023/04/23 07:34:45;;;;;;;5.03;3.30;;;;;;;;;;8350647;28;20635;-93
2023/04/23 07:38:49;;;;;;;5.40;3.00;;;;;;;;;;8348955;28;20650;-95
2023/04/23 07:42:54;;;;;;;4.55;3.15;;;;;;;;;;8361978;28;20141;-94
2023/04/23 07:46:57;;;;;;;5.10;3.13;;;;;;;;;;8362868;28;20057;-93
2023/04/23 07:51:01;;;;;;;6.40;3.38;;;;;;;;;;8347223;28;20135;-94
2023/04/23 07:55:04;;;;;;;4.43;2.90;;;;;;;;;;8360863;28;20068;-94
2023/04/23 07:59:08;;;;;;;4.18;2.80;;;;;;;;;;8361141;28;20554;-94
2023/04/23 08:03:11;;;;;;;4.28;2.85;;;;;;;;;;8362065;28;20488;-92
2023/04/23 08:07:14;;;;;;;6.22;2.92;;;;;;;;;;8362594;28;20445;-93
2023/04/23 08:11:17;;;;;;;5.18;2.95;;;;;;;;;;8362124;28;20059;-94
2023/04/23 08:15:22;;;;;;;5.70;2.85;;;;;;;;;;8362625;28;20052;-92
2023/04/23 08:19:30;;;;;;;4.65;2.90;;;;;;;;;;8361819;28;20061;-93
2023/04/23 08:23:33;;;;;;;5.20;2.90;;;;;;;;;;8362399;28;20057;-93
2023/04/23 08:27:36;;;;;;;4.43;2.90;;;;;;;;;;8361835;28;20053;-93
2023/04/23 08:31:41;;;;;;;5.30;3.40;;;;;;;;;;8362064;28;20638;-94
2023/04/23 08:35:44;;;;;;;4.68;3.20;;;;;;;;;;8361886;28;20060;-93
2023/04/23 08:39:47;;;;;;;5.45;3.35;;;;;;;;;;8364163;28;20064;-93
2023/04/23 08:43:56;;;;;;;4.88;3.28;;;;;;;;;;8363962;28;20057;-93
2023/04/23 08:48:01;;;;;;;5.53;3.47;;;;;;;;;;8362139;28;20072;-93
2023/04/23 08:52:16;;;;;;;4.68;3.28;;;;;;;;;;8361735;28;20106;-92
2023/04/23 08:56:21;;;;;;;5.35;3.80;;;;;;;;;;8362476;28;20056;-92
2023/04/23 09:00:24;;;;;;;6.32;3.40;;;;;;;;;;8367930;28;20060;-93
2023/04/23 09:04:30;;;;;;;5.82;3.40;;;;;;;;;;8350417;28;20403;-93
2023/04/23 09:08:34;;;;;;;5.97;3.40;;;;;;;;;;8364949;28;20159;-92
2023/04/23 09:12:38;;;;;;;5.85;3.58;;;;;;;;;;8360837;28;20053;-92
2023/04/23 09:16:41;;;;;;;4.43;3.15;;;;;;;;;;8354039;28;20081;-93
2023/04/23 09:20:46;;;;;;;5.07;3.47;;;;;;;;;;8358657;28;20485;-91
2023/04/23 09:24:49;;;;;;;5.70;3.38;;;;;;;;;;8362300;28;20048;-91
2023/04/23 09:28:52;;;;;;;5.95;3.67;;;;;;;;;;8366148;28;20045;-90
2023/04/23 09:32:55;;;;;;;5.30;3.70;;;;;;;;;;8366262;28;20137;-92
2023/04/23 09:37:00;;;;;;;5.95;4.07;;;;;;;;;;8366101;28;20439;-92
2023/04/23 09:41:22;;;;;;;6.10;3.97;;;;;;;;;;8366469;28;20106;-91
2023/04/23 09:45:25;;;;;;;5.38;3.58;;;;;;;;;;8348049;28;20764;-91
2023/04/23 09:49:30;;;;;;;5.82;3.85;;;;;;;;;;8364140;28;20053;-92
2023/04/23 09:53:42;;;;;;;8.13;4.28;;;;;;;;;;8365129;28;20053;-92
2023/04/23 09:57:45;;;;;;;5.30;3.70;;;;;;;;;;8366163;28;20053;-91
2023/04/23 10:01:48;;;;;;;5.68;3.75;;;;;;;;;;8365627;28;20113;-92
2023/04/23 10:05:54;;;;;;;9.98;3.92;;;;;;;;;;8365643;28;20124;-92
2023/04/23 10:09:58;;;;;;;7.05;3.80;;;;;;;;;;8364556;28;20072;-93
2023/04/23 10:14:02;;;;;;;7.53;4.30;;;;;;;;;;8365388;28;20041;-92
2023/04/23 10:18:07;;;;;;;5.65;3.90;;;;;;;;;;8364908;28;20131;-91
2023/04/23 10:22:11;;;;;;;7.80;4.28;;;;;;;;;;8365463;28;20131;-93
2023/04/23 10:26:16;;;;;;;7.68;3.97;;;;;;;;;;8364611;28;20057;-92
2023/04/23 10:30:20;;;;;;;5.95;3.92;;;;;;;;;;8365078;28;20057;-92
2023/04/23 10:34:25;;;;;;;6.88;4.00;;;;;;;;;;8364464;28;20115;-91
2023/04/23 10:38:29;;;;;;;9.15;4.35;;;;;;;;;;8364552;28;20049;-90
2023/04/23 10:42:33;;;;;;;7.55;4.13;;;;;;;;;;8364883;28;20126;-91
2023/04/23 10:46:36;;;;;;;7.80;4.20;;;;;;;;;;8363875;28;20123;-92
2023/04/23 10:50:40;;;;;;;6.57;4.35;;;;;;;;;;8363900;28;20057;-91
2023/04/23 10:54:44;;;;;;;7.18;4.30;;;;;;;;;;8363480;28;20060;-91
2023/04/23 10:58:51;;;;;;;7.72;4.53;;;;;;;;;;8363538;28;20496;-92
2023/04/23 11:02:55;;;;;;;8.23;4.90;;;;;;;;;;8363398;28;20053;-92
2023/04/23 11:07:05;;;;;;;6.40;4.30;;;;;;;;;;8363890;28;20060;-92
2023/04/23 11:11:09;;;;;;;6.03;4.10;;;;;;;;;;8363866;28;20055;-92
2023/04/23 11:15:15;;;;;;;6.65;4.35;;;;;;;;;;8363554;28;20057;-92
2023/04/23 11:19:18;;;;;;;10.85;5.00;;;;;;;;;;8362439;28;20141;-92
2023/04/23 11:23:32;;;;;;;6.20;3.40;;;;;;;;;;8363393;28;20135;-90
2023/04/23 11:27:38;;;;;;;9.18;4.30;;;;;;;;;;8363985;28;20049;-91
2023/04/23 11:31:43;;;;;;;9.55;4.35;;;;;;;;;;8362998;28;20057;-92
2023/04/23 11:35:46;;;;;;;9.82;5.97;;;;;;;;;;8362945;28;20056;-92
2023/04/23 11:39:50;;;;;;;8.65;5.40;;;;;;;;;;8362356;28;20080;-93
2023/04/23 11:43:53;;;;;;;8.50;6.28;;;;;;;;;;8363306;28;20075;-92
2023/04/23 11:47:59;;;;;;;7.35;5.40;;;;;;;;;;8362810;28;20508;-92
2023/04/23 11:52:02;;;;;;;9.85;5.45;;;;;;;;;;8362855;28;20059;-91
2023/04/23 11:56:05;;;;;;;7.38;4.38;;;;;;;;;;8361992;28;20106;-90
2023/04/23 12:00:16;;;;;;;8.27;5.22;;;;;;;;;;8362625;28;20073;-92
2023/04/23 12:04:23;;;;;;;9.27;5.72;;;;;;;;;;8362047;28;20088;-92
2023/04/23 12:08:26;;;;;;;9.35;5.70;;;;;;;;;;8362492;28;20082;-92
2023/04/23 12:12:34;;;;;;;7.75;4.63;;;;;;;;;;8362365;28;20136;-92
2023/04/23 12:16:39;;;;;;;9.32;5.13;;;;;;;;;;8362450;28;20073;-92
2023/04/23 12:20:44;;;;;;;10.82;6.07;;;;;;;;;;8362843;28;20527;-92
2023/04/23 12:24:50;;;;;;;9.00;4.60;;;;;;;;;;8362437;28;20049;-92
2023/04/23 12:28:54;;;;;;;5.70;4.28;;;;;;;;;;8362386;28;20049;-92
2023/04/23 12:33:00;;;;;;;6.85;4.30;;;;;;;;;;8355301;28;20187;-92
2023/04/23 12:37:07;;;;;;;11.65;5.70;;;;;;;;;;8368499;28;20096;-92
2023/04/23 12:41:11;;;;;;;12.00;6.95;;;;;;;;;;8367997;28;20064;-92
2023/04/23 12:45:14;;;;;;;8.90;4.20;;;;;;;;;;8368103;28;20178;-92
2023/04/23 12:49:16;;;;;;;12.20;5.90;;;;;;;;;;8367969;28;20045;-91
2023/04/23 12:53:21;;;;;;;7.00;4.55;;;;;;;;;;8354567;28;20064;-93
2023/04/23 12:57:24;;;;;;;8.18;4.40;;;;;;;;;;8349611;28;20053;-92
2023/04/23 13:01:27;;;;;;;10.38;5.95;;;;;;;;;;8355622;28;20106;-92
2023/04/23 13:05:30;;;;;;;7.68;4.68;;;;;;;;;;8367563;28;20061;-93
2023/04/23 13:09:34;;;;;;;8.27;5.25;;;;;;;;;;8354290;28;20133;-91
2023/04/23 13:13:37;;;;;;;7.88;5.00;;;;;;;;;;8367095;28;20057;-93
2023/04/23 13:17:40;;;;;;;8.50;4.65;;;;;;;;;;8367196;28;20568;-92
2023/04/23 13:21:43;;;;;;;6.53;4.32;;;;;;;;;;8367420;28;20053;-92
2023/04/23 13:25:48;;;;;;;9.68;4.95;;;;;;;;;;8354746;28;20049;-92
2023/04/23 13:29:50;;;;;;;7.53;4.80;;;;;;;;;;8367283;28;20524;-92
2023/04/23 13:33:54;;;;;;;7.25;4.57;;;;;;;;;;8353826;28;20544;-92
2023/04/23 13:37:58;;;;;;;8.68;4.60;;;;;;;;;;8353603;28;20107;-93
2023/04/23 13:42:03;;;;;;;8.63;4.70;;;;;;;;;;8365859;28;20049;-91
2023/04/23 13:46:06;;;;;;;7.38;4.20;;;;;;;;;;8366308;28;20106;-92
2023/04/23 13:50:10;;;;;;;8.05;4.88;;;;;;;;;;8353493;28;20065;-93
2023/04/23 13:54:13;;;;;;;8.82;4.40;;;;;;;;;;8365885;28;20139;-92
2023/04/23 13:58:18;;;;;;;10.60;4.55;;;;;;;;;;8366130;28;20055;-92
2023/04/23 14:02:21;;;;;;;6.55;4.32;;;;;;;;;;8366086;28;20244;-93
2023/04/23 14:06:24;;;;;;;8.23;4.28;;;;;;;;;;8366017;28;20076;-93
2023/04/23 14:10:27;;;;;;;6.60;4.43;;;;;;;;;;8366760;28;20544;-93
2023/04/23 14:14:32;;;;;;;9.43;4.63;;;;;;;;;;8358084;28;20574;-93
2023/04/23 14:18:35;;;;;;;10.85;5.32;;;;;;;;;;8360828;28;20053;-92
2023/04/23 14:22:38;;;;;;;7.97;4.45;;;;;;;;;;8365543;28;20061;-93
2023/04/23 14:26:43;;;;;;;7.63;4.43;;;;;;;;;;8367752;28;20053;-94
2023/04/23 14:30:50;;;;;;;13.00;4.40;;;;;;;;;;8358687;28;20110;-92
2023/04/23 14:34:53;;;;;;;7.85;4.25;;;;;;;;;;8364834;28;20085;-91
2023/04/23 14:38:57;;;;;;;8.73;4.50;;;;;;;;;;8365251;28;20064;-91
2023/04/23 14:43:00;;;;;;;7.18;4.10;;;;;;;;;;8351285;28;20136;-90
2023/04/23 14:47:06;;;;;;;7.05;4.20;;;;;;;;;;8364746;28;20049;-93
2023/04/23 14:51:09;;;;;;;8.50;4.10;;;;;;;;;;8364378;28;20551;-93
2023/04/23 14:55:12;;;;;;;6.28;3.83;;;;;;;;;;8333350;28;20085;-94
2023/04/23 14:59:16;;;;;;;7.72;3.95;;;;;;;;;;8362759;28;20064;-93
2023/04/23 15:03:20;;;;;;;5.55;3.90;;;;;;;;;;8354110;28;20084;-94
2023/04/23 15:07:23;;;;;;;6.40;4.07;;;;;;;;;;8364775;28;20488;-94
2023/04/23 15:11:26;;;;;;;7.35;4.10;;;;;;;;;;8364515;28;20774;-91
2023/04/23 15:15:38;;;;;;;7.82;3.90;;;;;;;;;;8333451;28;20057;-93
2023/04/23 15:19:43;;;;;;;7.72;3.65;;;;;;;;;;8351470;28;20053;-92
2023/04/23 15:23:46;;;;;;;9.32;4.40;;;;;;;;;;8364442;28;20049;-93
2023/04/23 15:27:55;;;;;;;6.20;3.58;;;;;;;;;;8364018;28;20981;-94
2023/04/23 15:31:58;;;;;;;5.18;3.53;;;;;;;;;;8364515;28;20057;-94
2023/04/23 15:36:03;;;;;;;8.25;4.10;;;;;;;;;;8364176;28;20052;-94
2023/04/23 15:40:11;;;;;;;5.88;3.83;;;;;;;;;;8364094;28;20049;-94
2023/04/23 15:44:14;;;;;;;7.28;4.30;;;;;;;;;;8364136;28;20548;-93
2023/04/23 15:48:17;;;;;;;5.60;4.03;;;;;;;;;;8363376;28;20057;-93
2023/04/23 15:52:22;;;;;;;10.35;4.70;;;;;;;;;;8352117;28;20132;-94
2023/04/23 15:56:25;;;;;;;8.45;3.97;;;;;;;;;;8363065;28;20133;-94
2023/04/23 16:00:28;;;;;;;6.38;4.00;;;;;;;;;;8363865;28;20454;-93
2023/04/23 16:04:31;;;;;;;7.28;4.60;;;;;;;;;;8363778;28;20074;-93
2023/04/23 16:08:36;;;;;;;7.20;4.63;;;;;;;;;;8370053;28;20649;-94
2023/04/23 16:12:44;;;;;;;8.40;3.90;;;;;;;;;;8352685;28;20098;-94
2023/04/23 16:16:47;;;;;;;6.13;3.83;;;;;;;;;;8360319;28;20053;-93
2023/04/23 16:20:50;;;;;;;6.07;4.10;;;;;;;;;;8362971;28;20056;-92
2023/04/23 16:24:55;;;;;;;7.25;4.30;;;;;;;;;;8364612;28;20546;-95
2023/04/23 16:28:59;;;;;;;8.23;4.40;;;;;;;;;;8364261;28;20053;-93
2023/04/23 16:33:02;;;;;;;7.90;4.40;;;;;;;;;;8357221;28;20137;-94
2023/04/23 16:37:05;;;;;;;8.02;4.50;;;;;;;;;;8368604;28;20381;-93
2023/04/23 16:41:10;;;;;;;6.03;4.05;;;;;;;;;;8363228;28;20560;-94
2023/04/23 16:45:14;;;;;;;5.78;3.83;;;;;;;;;;8368340;28;20128;-92
2023/04/23 16:49:18;;;;;;;9.45;4.43;;;;;;;;;;8366017;28;20057;-95
2023/04/23 16:53:22;;;;;;;8.07;4.20;;;;;;;;;;8358678;28;20416;-92
2023/04/23 16:57:27;;;;;;;8.13;4.18;;;;;;;;;;8363607;28;20146;-91
2023/04/23 17:01:31;;;;;;;10.57;4.65;;;;;;;;;;8368682;28;20045;-93
2023/04/23 17:05:39;;;;;;;6.55;4.10;;;;;;;;;;8345639;28;20041;-92
2023/04/23 17:09:44;;;;;;;6.07;4.07;;;;;;;;;;8362102;28;20105;-94
2023/04/23 17:13:49;;;;;;;6.88;4.03;;;;;;;;;;8371141;28;20057;-95
2023/04/23 17:17:52;;;;;;;10.52;4.18;;;;;;;;;;8349097;28;20131;-95
2023/04/23 17:21:56;;;;;;;7.15;4.35;;;;;;;;;;8373251;28;20077;-94
2023/04/23 17:26:00;;;;;;;9.45;4.03;;;;;;;;;;8357160;28;20485;-95
2023/04/23 17:30:07;;;;;;;7.30;4.68;;;;;;;;;;8374705;28;20076;-95
2023/04/23 17:34:10;;;;;;;34.05;15.10;;;;;;;;;;8365091;28;20057;-93
2023/04/23 17:38:19;;;;;;;11.63;7.35;;;;;;;;;;8372871;28;20519;-93
2023/04/23 17:42:22;;;;;;;9.02;5.65;;;;;;;;;;8360548;28;20060;-94
2023/04/23 17:46:27;;;;;;;10.60;6.35;;;;;;;;;;8359436;28;20055;-94
2023/04/23 17:50:32;;;;;;;8.75;5.85;;;;;;;;;;8374736;28;20079;-93
2023/04/23 17:54:37;;;;;;;8.00;4.97;;;;;;;;;;8362319;28;20060;-94
2023/04/23 17:58:43;;;;;;;14.90;9.77;;;;;;;;;;8380527;28;20052;-94
2023/04/23 18:02:50;;;;;;;16.50;11.18;;;;;;;;;;8347022;28;20041;-94
2023/04/23 18:06:55;;;;;;;17.38;12.70;;;;;;;;;;8358373;28;20057;-93
2023/04/23 18:11:00;;;;;;;17.35;12.10;;;;;;;;;;8375883;28;20049;-93
2023/04/23 18:15:11;;;;;;;18.50;12.23;;;;;;;;;;8377567;28;20052;-93
2023/04/23 18:19:16;;;;;;;23.30;14.70;;;;;;;;;;8357488;28;20504;-94
2023/04/23 18:23:21;;;;;;;28.25;15.30;;;;;;;;;;8374379;28;20049;-94
2023/04/23 18:27:26;;;;;;;23.77;12.80;;;;;;;;;;8372798;28;20079;-94
2023/04/23 18:31:32;;;;;;;29.00;12.20;;;;;;;;;;8356576;28;20060;-94
2023/04/23 18:35:41;;;;;;;26.00;12.10;;;;;;;;;;8366799;28;20049;-95
2023/04/23 18:39:45;;;;;;;20.17;9.65;;;;;;;;;;8370343;28;20140;-95
2023/04/23 18:43:50;;;;;;;13.75;7.93;;;;;;;;;;8355604;28;20053;-93
2023/04/23 18:48:05;;;;;;;14.02;7.53;;;;;;;;;;8375176;28;20485;-93
2023/04/23 18:52:15;;;;;;;14.38;7.10;;;;;;;;;;8362702;28;20048;-95
2023/04/23 18:56:19;;;;;;;18.58;8.20;;;;;;;;;;8340941;28;20049;-94
2023/04/23 19:00:24;;;;;;;18.95;6.88;;;;;;;;;;8339515;28;20053;-92
2023/04/23 19:04:29;;;;;;;15.98;6.97;;;;;;;;;;8338200;28;20053;-94
2023/04/23 19:08:37;;;;;;;14.85;7.32;;;;;;;;;;8336852;28;20640;-92
2023/04/23 19:12:42;;;;;;;17.05;8.00;;;;;;;;;;8336699;28;20480;-93
2023/04/23 19:16:46;;;;;;;15.57;6.97;;;;;;;;;;8335860;28;20049;-94
2023/04/23 19:20:51;;;;;;;15.23;9.45;;;;;;;;;;8303796;28;20085;-94
2023/04/23 19:24:57;;;;;;;14.13;7.65;;;;;;;;;;8329013;28;20755;-95
2023/04/23 19:29:04;;;;;;;14.57;7.40;;;;;;;;;;8322806;28;20111;-94
2023/04/23 19:33:09;;;;;;;16.52;7.05;;;;;;;;;;8335038;28;20493;-95
2023/04/23 19:37:13;;;;;;;11.65;6.95;;;;;;;;;;8334110;28;20046;-94
2023/04/23 19:41:18;;;;;;;11.00;7.13;;;;;;;;;;8333882;28;20140;-94
2023/04/23 19:45:23;;;;;;;13.27;7.38;;;;;;;;;;8332087;28;20080;-95
2023/04/23 19:49:36;;;;;;;13.30;7.88;;;;;;;;;;8333985;28;20121;-93
2023/04/23 19:53:39;;;;;;;13.93;8.10;;;;;;;;;;8345943;28;20052;-93
2023/04/23 19:57:45;;;;;;;11.55;7.82;;;;;;;;;;8366622;28;20059;-93
2023/04/23 20:01:49;;;;;;;16.02;9.52;;;;;;;;;;8366549;28;20102;-95
2023/04/23 20:05:57;;;;;;;21.17;10.77;;;;;;;;;;8367254;28;20045;-93
2023/04/23 20:10:01;;;;;;;17.77;10.07;;;;;;;;;;8367609;28;20057;-94
2023/04/23 20:14:06;;;;;;;18.48;11.43;;;;;;;;;;8349522;28;20069;-92
2023/04/23 20:18:10;;;;;;;31.95;15.45;;;;;;;;;;8367047;28;20060;-95
2023/04/23 20:22:13;;;;;;;22.02;13.05;;;;;;;;;;8366021;28;20064;-93
2023/04/23 20:26:17;;;;;;;22.30;11.15;;;;;;;;;;8355574;28;20049;-96
2023/04/23 20:30:22;;;;;;;17.92;11.40;;;;;;;;;;8350385;28;20048;-95
2023/04/23 20:34:25;;;;;;;18.95;10.68;;;;;;;;;;8366970;28;20049;-94
2023/04/23 20:38:31;;;;;;;17.55;9.90;;;;;;;;;;8366079;28;20179;-92
2023/04/23 20:42:37;;;;;;;15.43;9.68;;;;;;;;;;8366006;28;20141;-94
2023/04/23 20:46:44;;;;;;;17.02;10.80;;;;;;;;;;8365228;28;20052;-94
2023/04/23 20:50:47;;;;;;;23.73;13.52;;;;;;;;;;8364971;28;20045;-95
2023/04/23 20:54:52;;;;;;;24.90;13.93;;;;;;;;;;8352854;28;20056;-93
2023/04/23 20:58:56;;;;;;;21.58;10.70;;;;;;;;;;8371064;28;20095;-94
2023/04/23 21:03:00;;;;;;;17.35;10.30;;;;;;;;;;8360362;28;20408;-94
2023/04/23 21:07:04;;;;;;;19.65;10.73;;;;;;;;;;8353555;28;20056;-95
2023/04/23 21:11:10;;;;;;;19.42;10.50;;;;;;;;;;8357587;28;20507;-94
2023/04/23 21:15:15;;;;;;;25.00;12.00;;;;;;;;;;8370758;28;20088;-94
2023/04/23 21:19:19;;;;;;;16.08;10.88;;;;;;;;;;8370901;28;20052;-95
2023/04/23 21:23:22;;;;;;;17.70;9.65;;;;;;;;;;8370172;28;20084;-93
2023/04/23 21:27:26;;;;;;;24.02;11.80;;;;;;;;;;8370590;28;20057;-94
2023/04/23 21:31:39;;;;;;;18.20;11.25;;;;;;;;;;8369650;28;20135;-95
2023/04/23 21:35:44;;;;;;;21.13;11.63;;;;;;;;;;8369735;28;20593;-95
2023/04/23 21:39:48;;;;;;;27.95;13.70;;;;;;;;;;8351694;28;20053;-96
2023/04/23 21:43:51;;;;;;;39.45;18.02;;;;;;;;;;8369725;28;20139;-95
2023/04/23 21:47:55;;;;;;;40.03;17.98;;;;;;;;;;8365964;28;20127;-95
2023/04/23 21:52:01;;;;;;;37.00;16.15;;;;;;;;;;8369378;28;20144;-95
2023/04/23 21:56:04;;;;;;;21.65;12.48;;;;;;;;;;8350373;28;20501;-94
2023/04/23 22:00:12;;;;;;;27.38;13.27;;;;;;;;;;8358188;28;20083;-95
2023/04/23 22:04:17;;;;;;;25.52;14.70;;;;;;;;;;8350916;28;20049;-94
2023/04/23 22:08:22;;;;;;;23.52;14.05;;;;;;;;;;8355023;28;20144;-93
2023/04/23 22:12:25;;;;;;;21.73;12.45;;;;;;;;;;8370305;28;20053;-93
2023/04/23 22:16:28;;;;;;;23.63;13.30;;;;;;;;;;8352197;28;20235;-96
2023/04/23 22:20:31;;;;;;;18.40;11.35;;;;;;;;;;8360531;28;20136;-93
2023/04/23 22:24:36;;;;;;;23.08;11.60;;;;;;;;;;8354561;28;20107;-96
2023/04/23 22:28:39;;;;;;;19.63;11.68;;;;;;;;;;8344774;28;20125;-95
2023/04/23 22:32:42;;;;;;;49.83;19.08;;;;;;;;;;8340284;28;20080;-94
2023/04/23 22:36:45;;;;;;;41.47;17.25;;;;;;;;;;8351931;28;20528;-96
2023/04/23 22:40:50;;;;;;;25.40;11.68;;;;;;;;;;8349444;28;20556;-92
2023/04/23 22:44:53;;;;;;;21.58;12.02;;;;;;;;;;8368732;28;20582;-95
2023/04/23 22:48:56;;;;;;;19.50;10.48;;;;;;;;;;8352170;28;20076;-94
2023/04/23 22:52:59;;;;;;;63.70;22.98;;;;;;;;;;8347756;28;20506;-94
2023/04/23 22:57:09;;;;;;;30.58;15.90;;;;;;;;;;8343041;28;20572;-95
2023/04/23 23:01:12;;;;;;;23.25;11.30;;;;;;;;;;8360674;28;20140;-96
2023/04/23 23:05:15;;;;;;;19.63;11.60;;;;;;;;;;8366471;28;20064;-95
2023/04/23 23:09:18;;;;;;;21.77;12.57;;;;;;;;;;8344527;28;20140;-96
2023/04/23 23:13:23;;;;;;;27.60;15.13;;;;;;;;;;8340073;28;20057;-96
2023/04/23 23:17:27;;;;;;;26.30;15.10;;;;;;;;;;8359413;28;20108;-93
2023/04/23 23:21:31;;;;;;;19.67;11.52;;;;;;;;;;8357013;28;20063;-95
2023/04/23 23:25:37;;;;;;;24.77;12.32;;;;;;;;;;8349656;28;20503;-96
2023/04/23 23:29:41;;;;;;;20.35;10.30;;;;;;;;;;8368951;28;20057;-94
2023/04/23 23:33:44;;;;;;;25.75;12.43;;;;;;;;;;8367957;28;20140;-95
2023/04/23 23:37:47;;;;;;;18.52;11.85;;;;;;;;;;8355053;28;20059;-95
2023/04/23 23:41:52;;;;;;;20.70;12.40;;;;;;;;;;8338235;28;20048;-95
2023/04/23 23:45:56;;;;;;;21.10;12.38;;;;;;;;;;8369702;28;20052;-93
2023/04/23 23:50:00;;;;;;;18.70;11.23;;;;;;;;;;8369598;28;20132;-96
2023/04/23 23:54:04;;;;;;;22.20;12.82;;;;;;;;;;8368205;28;20076;-96
2023/04/23 23:58:10;;;;;;;24.35;13.02;;;;;;;;;;8368945;28;20057;-95
